Time;durP1;ratioP1;P1;durP2;ratioP2;P2;SDS_P1;SDS_P2;PMS_P1;PMS_P2;Temp;Humidity;BMP_temperature;BMP_pressure;BME280_temperature;BME280_humidity;BME280_pressure;Samples;Min_cycle;Max_cycle;Signal;HPM_P1;HPM_P2
2023/01/11 00:04:17;;;;;;;55.30;19.50;;;;;;;3.41;100.00;99065.20;221309;1280;22637;-79
2023/01/11 00:09:46;;;;;;;47.00;19.30;;;;;;;3.41;100.00;99068.86;221372;1279;22537;-80
2023/01/11 00:15:09;;;;;;;51.90;20.30;;;;;;;3.39;100.00;99065.64;221379;1279;22922;-79
2023/01/11 00:20:38;;;;;;;59.60;21.10;;;;;;;3.39;100.00;99069.30;221351;1279;25301;-79
2023/01/11 00:25:41;;;;;;;55.00;20.40;;;;;;;3.34;100.00;99063.10;221331;1278;22549;-79
2023/01/11 00:30:48;;;;;;;53.10;20.50;;;;;;;3.32;100.00;99059.72;221424;1280;23778;-78
2023/01/11 00:36:04;;;;;;;51.20;18.80;;;;;;;3.32;100.00;99061.43;221208;1279;22534;-79
2023/01/11 00:52:07;;;;;;;55.30;19.00;;;;;;;3.33;100.00;99067.59;222273;1279;22701;-79
2023/01/11 00:57:34;;;;;;;60.50;21.70;;;;;;;3.28;100.00;99061.17;221510;1270;22619;-79
2023/01/11 01:02:37;;;;;;;55.60;20.70;;;;;;;3.29;100.00;99069.88;221330;1280;22537;-79
2023/01/11 01:07:40;;;;;;;57.80;20.60;;;;;;;3.28;100.00;99070.13;221392;1280;26612;-79
2023/01/11 01:18:07;;;;;;;65.50;22.80;;;;;;;3.31;100.00;99072.48;221427;1280;22575;-79
2023/01/11 01:23:14;;;;;;;48.40;18.80;;;;;;;3.31;100.00;99073.62;221235;1280;22531;-79
2023/01/11 01:28:21;;;;;;;72.30;21.80;;;;;;;3.29;100.00;99073.42;221434;1280;23558;-79
2023/01/11 01:33:23;;;;;;;77.10;25.20;;;;;;;3.27;100.00;99072.13;221421;1280;24329;-79
2023/01/11 01:38:32;;;;;;;70.60;22.30;;;;;;;3.26;100.00;99073.11;221313;1279;22611;-79
2023/01/11 01:44:02;;;;;;;67.30;23.90;;;;;;;3.21;100.00;99072.10;221524;1279;22536;-79
2023/01/11 01:49:13;;;;;;;57.70;20.80;;;;;;;3.18;100.00;99070.88;221470;1275;22533;-79
2023/01/11 01:54:27;;;;;;;67.90;22.30;;;;;;;3.13;100.00;99060.92;221239;1276;22534;-80
2023/01/11 01:59:32;;;;;;;71.10;24.70;;;;;;;3.10;100.00;99058.02;221338;1280;22592;-80
2023/01/11 02:04:50;;;;;;;65.00;22.60;;;;;;;3.15;100.00;99056.58;221436;1278;22548;-79
2023/01/11 02:10:14;;;;;;;61.00;20.30;;;;;;;3.20;100.00;99052.77;222361;1280;24129;-79
2023/01/11 02:15:21;;;;;;;63.60;22.20;;;;;;;3.19;100.00;99044.69;221428;1280;26392;-79
2023/01/11 02:20:48;;;;;;;71.60;23.50;;;;;;;3.20;100.00;99042.77;221301;1280;25470;-79
2023/01/11 02:27:02;;;;;;;;;;;;;;;;;;;;;
2023/01/11 02:32:33;;;;;;;65.70;23.20;;;;;;;3.05;100.00;99032.02;219955;1288;24240;-79
2023/01/11 02:38:35;;;;;;;;;;;;;;;;;;;;;
2023/01/11 02:50:11;;;;;;;73.50;24.60;;;;;;;2.84;100.00;99046.09;221178;1263;22531;-79
2023/01/11 02:55:32;;;;;;;83.80;27.30;;;;;;;2.86;100.00;99044.09;221400;1278;22546;-79
2023/01/11 03:00:40;;;;;;;73.40;26.50;;;;;;;2.90;100.00;99044.40;221743;1276;22543;-79
2023/01/11 03:05:54;;;;;;;65.70;25.10;;;;;;;2.93;100.00;99039.91;221404;1274;22855;-78
2023/01/11 03:17:08;;;;;;;80.50;28.20;;;;;;;2.97;100.00;99032.38;221063;1280;22602;-78
2023/01/11 03:23:12;;;;;;;83.90;30.30;;;;;;;3.00;100.00;99026.17;221500;1276;24358;-78
2023/01/11 03:28:48;;;;;;;77.10;27.20;;;;;;;2.98;100.00;99026.55;221531;1274;22541;-79
2023/01/11 03:34:07;;;;;;;82.90;27.30;;;;;;;2.87;100.00;99026.54;221365;1278;24220;-79
2023/01/11 03:39:51;;;;;;;;;;;;;;;;;;;;;
2023/01/11 03:45:12;;;;;;;71.20;26.20;;;;;;;2.53;100.00;99019.81;221417;1278;24405;-79
2023/01/11 03:50:22;;;;;;;83.40;29.60;;;;;;;2.36;100.00;99014.60;221403;1280;22567;-79
2023/01/11 03:55:32;;;;;;;85.80;30.10;;;;;;;2.27;100.00;99014.04;221424;1278;22570;-79
2023/01/11 04:00:42;;;;;;;79.60;29.10;;;;;;;2.22;100.00;99010.05;221456;1278;22534;-79
2023/01/11 04:05:59;;;;;;;84.80;31.70;;;;;;;2.18;100.00;99014.30;221364;1279;22523;-79
2023/01/11 04:11:16;;;;;;;99.20;35.90;;;;;;;2.24;100.00;99016.33;221273;1279;25300;-79
2023/01/11 04:16:38;;;;;;;122.00;40.20;;;;;;;2.30;100.00;99008.13;221482;1278;23465;-79
2023/01/11 04:21:55;;;;;;;122.30;40.90;;;;;;;2.38;100.00;99008.53;221394;1263;25322;-78
2023/01/11 04:26:58;;;;;;;106.30;37.50;;;;;;;2.43;100.00;99010.28;221326;1276;23144;-78
2023/01/11 04:32:02;;;;;;;99.50;35.30;;;;;;;2.48;100.00;99010.54;221230;1276;22577;-79
2023/01/11 04:37:07;;;;;;;102.80;37.20;;;;;;;2.48;100.00;99000.60;221513;1280;25441;-79
2023/01/11 04:42:18;;;;;;;114.40;38.90;;;;;;;2.51;100.00;98988.29;221319;1280;22669;-79
2023/01/11 04:47:42;;;;;;;113.10;40.10;;;;;;;2.52;100.00;98981.61;221366;1280;22619;-79
2023/01/11 04:52:55;;;;;;;118.10;42.30;;;;;;;2.54;100.00;98980.84;221456;1280;22678;-79
2023/01/11 04:58:02;;;;;;;130.80;44.30;;;;;;;2.58;100.00;98980.36;221412;1278;22892;-78
2023/01/11 05:03:05;;;;;;;130.60;43.60;;;;;;;2.63;100.00;98980.09;221635;1279;22568;-78
2023/01/11 05:08:07;;;;;;;124.80;47.20;;;;;;;2.65;100.00;98972.67;221318;1279;24229;-79
2023/01/11 05:13:10;;;;;;;133.60;48.50;;;;;;;2.67;100.00;98972.56;221508;1280;24410;-78
2023/01/11 05:18:13;;;;;;;152.70;50.50;;;;;;;2.70;100.00;98969.94;221435;1260;25282;-79
2023/01/11 05:23:16;;;;;;;148.20;53.30;;;;;;;2.72;100.00;98963.63;221201;1279;24178;-80
2023/01/11 05:28:20;;;;;;;163.90;52.50;;;;;;;2.75;100.00;98953.95;221553;1256;22540;-79
2023/01/11 05:33:23;;;;;;;158.50;53.20;;;;;;;2.75;100.00;98955.11;221509;1256;24286;-79
2023/01/11 05:38:27;;;;;;;154.70;52.50;;;;;;;2.72;100.00;98948.50;222041;1280;22548;-79
2023/01/11 05:49:27;;;;;;;137.50;46.60;;;;;;;2.61;100.00;98949.64;221404;1280;22533;-79
2023/01/11 05:54:30;;;;;;;128.00;42.80;;;;;;;2.54;100.00;98952.13;221197;1280;23137;-80
2023/01/11 05:59:32;;;;;;;126.30;42.20;;;;;;;2.49;100.00;98951.38;221081;1279;22559;-78
2023/01/11 06:04:35;;;;;;;133.90;44.10;;;;;;;2.47;100.00;98945.52;221396;1280;22664;-78
2023/01/11 06:09:41;;;;;;;129.70;43.30;;;;;;;2.49;100.00;98936.63;221277;1279;22538;-79
2023/01/11 06:14:46;;;;;;;147.10;47.30;;;;;;;2.49;100.00;98940.48;221109;1280;24362;-79
2023/01/11 06:19:58;;;;;;;144.00;47.70;;;;;;;2.47;100.00;98941.13;221487;1280;24238;-78
2023/01/11 06:25:04;;;;;;;146.40;49.20;;;;;;;2.41;100.00;98941.41;221440;1279;23024;-79
2023/01/11 06:30:11;;;;;;;143.90;45.70;;;;;;;2.34;100.00;98936.29;221564;1280;22544;-78
2023/01/11 06:35:29;;;;;;;;;;;;;;;;;;;;;
2023/01/11 06:40:35;;;;;;;138.10;44.20;;;;;;;2.25;100.00;98930.06;221443;1279;25435;-79
2023/01/11 06:45:38;;;;;;;150.80;44.40;;;;;;;2.23;100.00;98929.73;221191;1278;26508;-78
2023/01/11 06:50:40;;;;;;;146.90;45.00;;;;;;;2.20;100.00;98932.45;221503;1275;139254;-77
2023/01/11 06:55:56;;;;;;;168.50;49.90;;;;;;;2.17;100.00;98936.20;221552;1268;26185;-78
2023/01/11 07:01:05;;;;;;;157.20;48.70;;;;;;;2.16;100.00;98931.55;221858;1268;139380;-78
2023/01/11 07:06:09;;;;;;;157.10;45.40;;;;;;;2.13;100.00;98945.38;222155;1264;138973;-79
2023/01/11 07:11:25;;;;;;;172.70;47.30;;;;;;;2.09;100.00;98946.09;222057;1272;139401;-79
2023/01/11 07:16:35;;;;;;;172.50;49.20;;;;;;;2.11;100.00;98936.34;221684;1266;139208;-78
2023/01/11 07:21:38;;;;;;;184.20;50.50;;;;;;;2.15;100.00;98932.33;222212;1275;139645;-77
2023/01/11 07:26:40;;;;;;;169.00;46.60;;;;;;;2.22;100.00;98922.30;221884;1266;138643;-77
2023/01/11 07:31:45;;;;;;;184.10;47.00;;;;;;;2.31;100.00;98912.19;222071;1272;22536;-78
2023/01/11 07:36:48;;;;;;;165.60;42.40;;;;;;;2.41;100.00;98911.39;221838;1275;139372;-79
2023/01/11 07:47:29;;;;;;;170.40;40.60;;;;;;;2.61;100.00;98907.90;221663;1272;138637;-78
2023/01/11 07:52:37;;;;;;;144.30;34.70;;;;;;;2.71;100.00;98905.88;221792;1272;138582;-78
2023/01/11 07:57:42;;;;;;;195.50;43.10;;;;;;;2.82;100.00;98907.00;222023;1265;138704;-79
2023/01/11 08:02:52;;;;;;;160.30;40.00;;;;;;;2.94;100.00;98901.09;222017;1272;138792;-78
2023/01/11 08:08:03;;;;;;;189.80;36.10;;;;;;;3.08;100.00;98896.59;221719;1260;133426;-78
2023/01/11 08:18:42;;;;;;;158.10;36.40;;;;;;;3.44;100.00;98889.56;221970;1272;138720;-78
2023/01/11 08:23:51;;;;;;;158.40;36.70;;;;;;;3.58;100.00;98886.48;221981;1272;139035;-78
2023/01/11 08:28:54;;;;;;;158.50;37.60;;;;;;;3.70;100.00;98881.30;222109;1265;138741;-78
2023/01/11 08:34:08;;;;;;;172.90;40.90;;;;;;;3.80;100.00;98886.45;222043;1272;139227;-78
2023/01/11 08:39:14;;;;;;;159.10;36.80;;;;;;;3.88;100.00;98894.16;221983;1273;138708;-78
2023/01/11 08:44:19;;;;;;;155.50;38.10;;;;;;;3.97;100.00;98906.69;221910;1272;22656;-79
2023/01/11 08:50:19;;;;;;;166.70;38.40;;;;;;;4.05;100.00;98912.60;221759;1273;22571;-79
2023/01/11 08:55:23;;;;;;;151.00;37.00;;;;;;;4.17;100.00;98914.59;221804;1275;138348;-79
2023/01/11 09:00:29;;;;;;;123.00;30.70;;;;;;;4.22;100.00;98921.17;221745;1262;139179;-78
2023/01/11 09:05:44;;;;;;;151.60;38.70;;;;;;;4.19;100.00;98921.19;221606;1265;139313;-78
2023/01/11 09:11:52;;;;;;;169.40;37.40;;;;;;;4.14;100.00;98925.51;221838;1256;138693;-78
2023/01/11 09:16:27;;;;;;;125.40;34.30;;;;;;;4.20;100.00;98926.45;223068;1274;139355;-78
2023/01/11 09:21:32;;;;;;;98.40;31.10;;;;;;;4.26;100.00;98918.36;221978;1272;139460;-78
2023/01/11 09:26:40;;;;;;;120.00;34.40;;;;;;;4.21;100.00;98910.33;223275;1271;139119;-79
2023/01/11 09:31:42;;;;;;;126.70;37.00;;;;;;;4.16;100.00;98907.09;221859;1275;22770;-79
2023/01/11 09:36:50;;;;;;;134.90;37.40;;;;;;;4.22;100.00;98901.81;221604;1279;138779;-78
2023/01/11 09:42:38;;;;;;;147.00;41.20;;;;;;;4.32;100.00;98890.67;221899;1273;139096;-78
2023/01/11 09:47:52;;;;;;;129.00;39.50;;;;;;;4.34;100.00;98878.50;221723;1280;139116;-77
2023/01/11 09:53:09;;;;;;;148.20;42.70;;;;;;;4.33;100.00;98866.38;222191;1260;139136;-78
2023/01/11 09:58:45;;;;;;;142.60;45.00;;;;;;;4.47;100.00;98859.72;222365;1275;138726;-79
2023/01/11 10:04:56;;;;;;;160.60;46.00;;;;;;;4.61;100.00;98849.92;222610;1278;139123;-79
2023/01/11 10:10:56;;;;;;;135.70;42.00;;;;;;;4.78;100.00;98846.51;222655;1275;139214;-79
2023/01/11 10:16:55;;;;;;;143.30;45.90;;;;;;;4.92;100.00;98845.70;223261;1272;139186;-78
2023/01/11 10:23:19;;;;;;;132.70;43.60;;;;;;;5.09;100.00;98838.50;222122;1272;139222;-79
2023/01/11 10:29:13;;;;;;;101.00;35.10;;;;;;;5.25;100.00;98829.89;222778;1272;139497;-78
2023/01/11 10:46:51;;;;;;;41.90;16.40;;;;;;;5.47;100.00;98816.41;222264;1279;138556;-77
2023/01/11 10:52:13;;;;;;;26.60;12.60;;;;;;;5.49;100.00;98811.54;222882;1275;138525;-78
2023/01/11 10:58:14;;;;;;;34.80;17.50;;;;;;;5.55;100.00;98808.98;221592;1273;138539;-77
2023/01/11 11:03:59;;;;;;;21.70;13.10;;;;;;;5.68;100.00;98800.47;221914;1280;139107;-78
2023/01/11 11:09:32;;;;;;;21.70;12.40;;;;;;;5.69;100.00;98796.39;222043;1273;138454;-77
2023/01/11 11:15:12;;;;;;;23.40;11.70;;;;;;;5.75;100.00;98795.95;221813;1262;138456;-77
2023/01/11 11:20:26;;;;;;;31.30;14.80;;;;;;;5.89;100.00;98787.80;222095;1273;22556;-78
2023/01/11 11:25:42;;;;;;;29.10;13.90;;;;;;;6.06;100.00;98778.66;222051;1275;23982;-78
2023/01/11 11:30:53;;;;;;;23.20;12.00;;;;;;;6.14;100.00;98773.98;221736;1275;138694;-77
2023/01/11 11:36:00;;;;;;;72.40;16.90;;;;;;;6.15;100.00;98765.02;223038;1275;138939;-79
2023/01/11 11:41:52;;;;;;;80.60;18.30;;;;;;;6.31;100.00;98751.58;221662;1280;138241;-77
2023/01/11 11:47:15;;;;;;;41.30;12.30;;;;;;;6.52;99.69;98733.66;221669;1272;138784;-77
2023/01/11 11:53:03;;;;;;;31.40;11.60;;;;;;;6.50;99.06;98713.75;221356;1282;139078;-78
2023/01/11 11:58:21;;;;;;;53.60;14.80;;;;;;;6.57;98.79;98713.45;222129;1283;138474;-78
2023/01/11 12:03:31;;;;;;;26.00;10.80;;;;;;;6.77;99.14;98712.04;221181;1278;138845;-77
2023/01/11 12:09:12;;;;;;;38.00;10.80;;;;;;;6.89;97.88;98700.61;221445;1280;138817;-78
2023/01/11 12:14:33;;;;;;;16.20;7.10;;;;;;;6.95;96.00;98692.73;221879;1262;22741;-77
2023/01/11 12:19:42;;;;;;;16.10;7.10;;;;;;;6.92;94.85;98697.67;221891;1279;24370;-77
2023/01/11 12:25:09;;;;;;;8.40;4.90;;;;;;;6.92;95.11;98694.64;222159;1275;138190;-77
2023/01/11 12:30:30;;;;;;;13.80;4.20;;;;;;;6.69;92.29;98685.03;221971;1275;138295;-76
2023/01/11 12:36:18;;;;;;;25.20;3.90;;;;;;;6.52;91.19;98679.38;221876;1276;138685;-77
2023/01/11 12:42:24;;;;;;;24.00;5.00;;;;;;;6.42;90.76;98671.89;221930;1279;138716;-78
2023/01/11 12:47:40;;;;;;;27.70;5.20;;;;;;;6.41;91.16;98657.64;221562;1279;138380;-78
2023/01/11 12:52:58;;;;;;;20.20;5.50;;;;;;;6.45;90.76;98655.14;222537;1273;139048;-77
2023/01/11 12:58:40;;;;;;;26.50;8.90;;;;;;;6.47;92.01;98638.71;222476;1279;138521;-76
2023/01/11 13:04:08;;;;;;;16.70;6.30;;;;;;;6.48;91.49;98629.97;221732;1279;138380;-76
2023/01/11 13:09:39;;;;;;;19.00;4.00;;;;;;;6.40;90.39;98619.64;221868;1275;138339;-77
2023/01/11 13:15:16;;;;;;;48.50;5.80;;;;;;;6.38;90.64;98624.37;221704;1279;138299;-77
2023/01/11 13:20:33;;;;;;;19.00;4.20;;;;;;;6.33;90.52;98614.57;221889;1279;25397;-78
2023/01/11 13:26:23;;;;;;;10.20;4.50;;;;;;;6.26;90.50;98605.30;222587;1278;26313;-77
2023/01/11 13:31:26;;;;;;;14.70;4.80;;;;;;;6.17;90.60;98596.89;221484;1262;137855;-76
2023/01/11 13:36:45;;;;;;;13.50;6.00;;;;;;;6.11;91.23;98592.95;221444;1280;138197;-76
2023/01/11 13:41:54;;;;;;;19.60;7.70;;;;;;;6.05;91.46;98594.09;221547;1279;138998;-77
2023/01/11 13:47:03;;;;;;;19.90;9.40;;;;;;;6.01;92.52;98588.40;221676;1279;138497;-77
2023/01/11 13:52:16;;;;;;;24.70;11.30;;;;;;;5.96;92.57;98590.75;221742;1257;138264;-77
2023/01/11 13:57:59;;;;;;;28.20;11.60;;;;;;;5.86;92.99;98590.98;221737;1267;138436;-77
2023/01/11 14:03:50;;;;;;;26.60;11.80;;;;;;;5.76;93.52;98593.35;221805;1267;138405;-77
2023/01/11 14:09:50;;;;;;;;;;;;;;;;;;;;;
2023/01/11 14:15:42;;;;;;;23.70;10.90;;;;;;;5.54;93.62;98593.59;222884;1273;138473;-77
2023/01/11 14:21:34;;;;;;;20.80;10.10;;;;;;;5.43;93.87;98602.09;221931;1272;138404;-77
2023/01/11 14:27:10;;;;;;;;;;;;;;;;;;;;;
2023/01/11 14:32:49;;;;;;;15.70;7.50;;;;;;;5.15;93.71;98595.09;221882;1275;22530;-75
2023/01/11 14:38:56;;;;;;;14.90;7.30;;;;;;;4.97;93.27;98593.96;221841;1278;25352;-77
2023/01/11 14:44:37;;;;;;;22.40;8.90;;;;;;;4.79;93.48;98602.02;221896;1280;26815;-77
2023/01/11 14:50:26;;;;;;;13.90;7.80;;;;;;;4.68;93.73;98596.42;221525;1273;25249;-77
2023/01/11 14:55:43;;;;;;;24.40;10.80;;;;;;;4.56;93.82;98590.65;222008;1273;138022;-76
2023/01/11 15:00:56;;;;;;;26.30;12.00;;;;;;;4.46;94.05;98582.17;221923;1273;138982;-78
2023/01/11 15:06:16;;;;;;;29.80;12.10;;;;;;;4.35;94.35;98577.89;222019;1279;138478;-77
2023/01/11 15:11:34;;;;;;;28.10;12.20;;;;;;;4.23;94.76;98574.36;221608;1277;138535;-77
2023/01/11 15:22:28;;;;;;;29.10;11.80;;;;;;;3.97;95.10;98545.11;221524;1276;139389;-77
2023/01/11 15:27:36;;;;;;;29.60;12.70;;;;;;;3.91;95.27;98551.05;221707;1278;22541;-77
2023/01/11 15:32:40;;;;;;;27.10;13.00;;;;;;;3.83;95.65;98543.59;221496;1278;22596;-77
2023/01/11 15:38:04;;;;;;;36.90;14.30;;;;;;;3.76;95.80;98541.40;221488;1279;24466;-76
2023/01/11 15:43:48;;;;;;;37.50;14.30;;;;;;;3.71;95.91;98546.48;221523;1276;22551;-78
2023/01/11 15:49:23;;;;;;;42.40;18.00;;;;;;;3.65;96.12;98555.21;222307;1279;22543;-77
2023/01/11 15:54:53;;;;;;;41.70;17.70;;;;;;;3.59;96.55;98556.42;221328;1279;24352;-78
2023/01/11 16:00:53;;;;;;;45.60;18.80;;;;;;;3.54;96.63;98553.13;221348;1279;23021;-77
2023/01/11 16:06:26;;;;;;;41.30;17.20;;;;;;;3.46;96.76;98542.77;221556;1273;24591;-77
2023/01/11 16:12:23;;;;;;;32.20;15.60;;;;;;;3.40;96.83;98536.34;221358;1279;22691;-78
2023/01/11 16:17:39;;;;;;;32.90;14.50;;;;;;;3.38;96.91;98533.45;221391;1279;22702;-76
2023/01/11 16:22:49;;;;;;;35.90;16.40;;;;;;;3.36;96.62;98529.89;222306;1278;22599;-77
2023/01/11 16:27:54;;;;;;;29.90;13.40;;;;;;;3.37;96.85;98530.42;221391;1279;23146;-77
2023/01/11 16:33:21;;;;;;;27.20;12.00;;;;;;;3.33;96.77;98532.27;221643;1279;22802;-77
2023/01/11 16:38:24;;;;;;;24.50;11.70;;;;;;;3.31;96.62;98528.13;221568;1275;22541;-77
2023/01/11 16:43:45;;;;;;;22.00;10.80;;;;;;;3.32;96.50;98525.02;221479;1279;22547;-76
2023/01/11 16:49:15;;;;;;;26.00;12.00;;;;;;;3.33;96.55;98532.27;221459;1274;25313;-76
2023/01/11 16:54:25;;;;;;;20.60;9.70;;;;;;;3.32;96.54;98525.91;221355;1276;25779;-78
2023/01/11 16:59:33;;;;;;;25.10;10.60;;;;;;;3.30;96.35;98530.39;221454;1279;22539;-76
2023/01/11 17:04:47;;;;;;;32.20;16.00;;;;;;;3.29;96.41;98539.55;221503;1276;24237;-77
2023/01/11 17:09:50;;;;;;;44.50;19.30;;;;;;;3.27;96.29;98531.15;221351;1257;23839;-77
2023/01/11 17:15:14;;;;;;;37.20;17.70;;;;;;;3.22;96.34;98539.16;221520;1273;24292;-76
2023/01/11 17:20:22;;;;;;;45.10;19.10;;;;;;;3.19;96.53;98546.15;222287;1277;25278;-77
2023/01/11 17:25:32;;;;;;;49.10;20.40;;;;;;;3.20;96.91;98546.42;221242;1279;22547;-76
2023/01/11 17:30:48;;;;;;;45.40;19.00;;;;;;;3.21;97.02;98548.55;221616;1277;22588;-76
2023/01/11 17:36:00;;;;;;;49.30;21.70;;;;;;;3.21;97.03;98543.58;221502;1279;22554;-76
2023/01/11 17:46:33;;;;;;;59.70;23.20;;;;;;;3.29;97.20;98542.86;221546;1268;25387;-76
2023/01/11 17:51:38;;;;;;;43.60;18.90;;;;;;;3.32;97.22;98536.82;221610;1277;22599;-77
2023/01/11 17:56:40;;;;;;;53.30;22.80;;;;;;;3.35;96.99;98532.67;221315;1277;24221;-76
2023/01/11 18:01:52;;;;;;;35.50;15.80;;;;;;;3.39;96.88;98536.86;221389;1278;22607;-75
2023/01/11 18:07:18;;;;;;;29.50;13.10;;;;;;;3.50;96.78;98540.11;221548;1277;22601;-77
2023/01/11 18:12:31;;;;;;;23.00;10.50;;;;;;;3.63;96.43;98534.11;221446;1279;22584;-76
2023/01/11 18:17:37;;;;;;;13.60;6.00;;;;;;;3.73;95.89;98536.59;221477;1279;22543;-76
2023/01/11 18:23:21;;;;;;;12.00;5.60;;;;;;;3.84;95.47;98533.10;221478;1273;27331;-76
2023/01/11 18:28:29;;;;;;;9.80;5.20;;;;;;;3.94;95.03;98530.71;221652;1279;22682;-75
2023/01/11 18:33:37;;;;;;;10.60;5.10;;;;;;;3.99;94.32;98516.08;221455;1276;22547;-76
2023/01/11 18:38:40;;;;;;;9.20;4.40;;;;;;;4.03;93.89;98506.47;221523;1277;22540;-76
2023/01/11 18:43:43;;;;;;;9.60;4.50;;;;;;;4.04;93.58;98501.45;221387;1279;24916;-76
2023/01/11 18:48:46;;;;;;;9.10;4.30;;;;;;;4.11;92.39;98504.30;222112;1279;22550;-77
2023/01/11 18:53:48;;;;;;;8.80;3.50;;;;;;;4.19;91.31;98507.65;221396;1278;24234;-76
2023/01/11 18:58:56;;;;;;;9.30;4.30;;;;;;;4.24;91.39;98505.11;222161;1279;23947;-77
2023/01/11 19:03:59;;;;;;;8.20;4.00;;;;;;;4.31;90.11;98503.09;221450;1279;22547;-75
2023/01/11 19:09:05;;;;;;;8.70;3.50;;;;;;;4.38;90.17;98506.27;221568;1275;22534;-77
2023/01/11 19:14:15;;;;;;;7.00;3.50;;;;;;;4.41;88.73;98496.64;221458;1279;22534;-77
2023/01/11 19:19:23;;;;;;;5.60;3.60;;;;;;;4.44;88.16;98499.36;221452;1272;24231;-77
2023/01/11 19:24:28;;;;;;;5.80;2.90;;;;;;;4.50;87.52;98500.52;221512;1273;23758;-76
2023/01/11 19:29:33;;;;;;;5.50;3.40;;;;;;;4.55;87.88;98504.58;221502;1273;22533;-78
2023/01/11 19:34:36;;;;;;;8.00;3.20;;;;;;;4.64;88.03;98509.73;222086;1279;22593;-76
2023/01/11 19:39:41;;;;;;;5.80;2.80;;;;;;;4.71;87.80;98503.78;221477;1279;22501;-76
2023/01/11 19:44:46;;;;;;;7.30;3.10;;;;;;;4.77;87.53;98505.10;221623;1276;22601;-76
2023/01/11 19:49:59;;;;;;;5.90;3.30;;;;;;;4.81;87.44;98511.80;221590;1279;22943;-77
2023/01/11 19:55:15;;;;;;;7.50;4.10;;;;;;;4.83;86.88;98515.53;222254;1263;23032;-76
2023/01/11 20:00:24;;;;;;;7.20;3.40;;;;;;;4.85;86.96;98525.36;221240;1279;23017;-76
2023/01/11 20:05:31;;;;;;;10.20;4.40;;;;;;;4.86;87.09;98533.01;221056;1279;330390;-77
2023/01/11 20:10:46;;;;;;;8.10;3.10;;;;;;;4.84;86.85;98555.61;221541;1279;22540;-76
2023/01/11 20:15:51;;;;;;;8.10;3.70;;;;;;;4.84;86.03;98565.27;221607;1279;22661;-77
2023/01/11 20:20:56;;;;;;;9.20;3.90;;;;;;;4.84;86.12;98574.84;221295;1279;22575;-75
2023/01/11 20:26:13;;;;;;;9.70;4.40;;;;;;;4.83;86.43;98583.67;221523;1279;23057;-76
2023/01/11 20:31:16;;;;;;;10.70;4.60;;;;;;;4.83;86.39;98587.66;221377;1279;22597;-76
2023/01/11 20:36:25;;;;;;;10.30;3.70;;;;;;;4.84;86.04;98583.70;221590;1276;25587;-76
2023/01/11 20:41:50;;;;;;;6.00;2.90;;;;;;;4.87;85.97;98577.29;221484;1275;22557;-76
2023/01/11 20:46:57;;;;;;;8.00;3.20;;;;;;;4.89;86.45;98564.89;221473;1274;22679;-76
2023/01/11 20:52:06;;;;;;;6.10;3.10;;;;;;;4.90;85.96;98558.61;221691;1277;22545;-76
2023/01/11 20:57:11;;;;;;;3.80;2.20;;;;;;;4.94;86.07;98569.84;221440;1279;23793;-77
2023/01/11 21:02:14;;;;;;;5.00;2.90;;;;;;;4.99;85.15;98585.86;221528;1278;22648;-77
2023/01/11 21:07:19;;;;;;;8.00;3.30;;;;;;;5.01;86.34;98590.43;221442;1259;25369;-76
2023/01/11 21:12:25;;;;;;;10.30;4.10;;;;;;;5.05;86.31;98587.33;221453;1277;25387;-77
2023/01/11 21:17:29;;;;;;;5.30;2.90;;;;;;;5.09;85.31;98596.27;221506;1275;22613;-76
2023/01/11 21:22:36;;;;;;;6.10;2.80;;;;;;;5.11;85.83;98592.73;221443;1279;22552;-76
2023/01/11 21:27:42;;;;;;;6.70;3.30;;;;;;;5.11;85.72;98596.60;221359;1279;22579;-76
2023/01/11 21:32:47;;;;;;;6.70;3.50;;;;;;;5.10;86.27;98601.91;221480;1273;22644;-76
2023/01/11 21:37:50;;;;;;;5.90;3.00;;;;;;;5.09;86.65;98600.85;221450;1279;22681;-78
2023/01/11 21:42:58;;;;;;;6.20;3.40;;;;;;;5.09;86.78;98599.30;221507;1273;24143;-77
2023/01/11 21:48:00;;;;;;;7.50;3.40;;;;;;;5.11;87.15;98603.46;221255;1277;23360;-76
2023/01/11 21:53:06;;;;;;;5.50;3.20;;;;;;;5.12;87.11;98608.56;221241;1279;24369;-76
2023/01/11 21:58:11;;;;;;;5.60;2.40;;;;;;;5.12;87.51;98615.63;221513;1279;22556;-78
2023/01/11 22:03:14;;;;;;;7.10;2.70;;;;;;;5.13;87.62;98618.96;222472;1275;22609;-77
2023/01/11 22:08:17;;;;;;;6.10;2.80;;;;;;;5.11;88.17;98617.80;221513;1277;23771;-76
2023/01/11 22:13:31;;;;;;;5.80;3.20;;;;;;;5.06;89.21;98616.34;221501;1279;22549;-76
2023/01/11 22:18:35;;;;;;;5.20;2.70;;;;;;;4.98;90.24;98618.20;221565;1278;25042;-76
2023/01/11 22:23:37;;;;;;;5.30;2.60;;;;;;;4.83;91.52;98623.23;221669;1277;24344;-76
2023/01/11 22:34:17;;;;;;;7.40;2.50;;;;;;;4.56;92.77;98633.73;221522;1275;24231;-78
2023/01/11 22:39:53;;;;;;;8.00;3.50;;;;;;;4.40;94.22;98635.98;222240;1266;23918;-78
2023/01/11 22:45:06;;;;;;;8.70;3.10;;;;;;;4.30;95.05;98636.73;222321;1275;22542;-79
2023/01/11 22:50:13;;;;;;;7.00;3.40;;;;;;;4.19;96.13;98647.02;221657;1275;22534;-77
2023/01/11 22:55:18;;;;;;;7.00;3.30;;;;;;;4.11;96.68;98642.36;221494;1272;22621;-77
2023/01/11 23:00:31;;;;;;;5.70;3.00;;;;;;;4.03;97.26;98650.39;222151;1278;22497;-78
2023/01/11 23:05:42;;;;;;;7.20;3.90;;;;;;;3.97;99.15;98652.14;222140;1275;22530;-79
2023/01/11 23:10:48;;;;;;;7.50;3.50;;;;;;;3.93;99.17;98660.73;222248;1278;25360;-76
2023/01/11 23:15:59;;;;;;;9.70;4.00;;;;;;;3.88;99.61;98657.16;221542;1272;22568;-77
2023/01/11 23:21:27;;;;;;;7.90;3.50;;;;;;;3.83;99.86;98661.19;221584;1279;22886;-76
2023/01/11 23:26:35;;;;;;;6.50;3.50;;;;;;;3.81;99.92;98657.52;221485;1279;22536;-76
2023/01/11 23:31:45;;;;;;;8.90;3.60;;;;;;;3.79;100.00;98659.23;222159;1278;23343;-78
2023/01/11 23:36:59;;;;;;;8.60;3.90;;;;;;;3.79;100.00;98663.31;221379;1279;22773;-77
2023/01/11 23:47:30;;;;;;;9.30;4.50;;;;;;;3.78;100.00;98663.30;221328;1279;25093;-77
2023/01/11 23:52:32;;;;;;;7.80;4.30;;;;;;;3.80;100.00;98670.95;221375;1279;22600;-77
2023/01/11 23:58:07;;;;;;;8.10;4.00;;;;;;;3.80;100.00;98673.02;221331;1278;22679;-77
